createdAt,value
2022-12-31T00:00:34.791Z,11.65
2022-12-31T00:03:03.187Z,11.83
2022-12-31T00:05:32.062Z,11.89
2022-12-31T00:07:59.219Z,12.04
2022-12-31T00:10:26.522Z,11.88
2022-12-31T00:12:54.028Z,11.94
2022-12-31T00:15:21.539Z,12.04
2022-12-31T00:17:48.881Z,11.96
2022-12-31T00:20:16.710Z,11.77
2022-12-31T00:22:43.914Z,11.56
2022-12-31T00:25:11.102Z,11.47
2022-12-31T00:27:38.775Z,11.28
2022-12-31T00:30:06.439Z,11.19
2022-12-31T00:32:33.798Z,11.19
2022-12-31T00:35:01.043Z,11.34
2022-12-31T00:37:30.193Z,11.14
2022-12-31T00:39:57.340Z,11.27
2022-12-31T00:42:24.569Z,11.25
2022-12-31T00:44:51.718Z,11.40
2022-12-31T00:47:19.015Z,11.27
2022-12-31T00:49:48.008Z,11.05
2022-12-31T00:52:17.004Z,11.28
2022-12-31T00:54:44.657Z,11.53
2022-12-31T00:57:12.294Z,11.57
2022-12-31T00:59:39.756Z,11.75
2022-12-31T01:02:07.049Z,11.73
2022-12-31T01:04:34.749Z,11.86
2022-12-31T01:07:02.218Z,11.91
2022-12-31T01:09:29.470Z,11.88
2022-12-31T01:11:56.953Z,12.03
2022-12-31T01:14:24.213Z,12.03
2022-12-31T01:16:53.555Z,12.11
2022-12-31T01:19:26.350Z,12.20
2022-12-31T01:21:54.596Z,12.06
2022-12-31T01:24:22.382Z,12.14
2022-12-31T01:26:51.080Z,12.19
2022-12-31T01:29:19.871Z,11.98
2022-12-31T01:31:47.195Z,11.50
2022-12-31T01:34:14.933Z,11.31
2022-12-31T01:36:42.199Z,11.05
2022-12-31T01:39:11.115Z,10.89
2022-12-31T01:41:41.753Z,10.89
2022-12-31T01:44:11.933Z,10.92
2022-12-31T01:46:39.399Z,10.93
2022-12-31T01:49:22.888Z,10.59
2022-12-31T01:52:17.571Z,10.36
2022-12-31T01:54:49.849Z,10.51
2022-12-31T01:57:20.668Z,10.37
2022-12-31T01:59:48.037Z,10.11
2022-12-31T02:02:16.538Z,10.00
2022-12-31T02:04:44.069Z,10.11
2022-12-31T02:07:12.711Z,10.10
2022-12-31T02:09:42.363Z,9.98
2022-12-31T02:12:10.702Z,9.84
2022-12-31T02:14:48.297Z,9.75
2022-12-31T02:17:40.257Z,9.81
2022-12-31T02:20:52.462Z,9.94
2022-12-31T02:24:14.052Z,10.07
2022-12-31T02:26:55.171Z,10.21
2022-12-31T02:29:53.428Z,10.25
2022-12-31T02:32:28.481Z,10.18
2022-12-31T02:35:05.893Z,10.26
2022-12-31T02:37:34.017Z,9.98
2022-12-31T02:40:01.552Z,9.94
2022-12-31T02:42:30.447Z,10.20
2022-12-31T02:44:57.599Z,10.51
2022-12-31T02:48:19.337Z,10.75
2022-12-31T02:51:08.223Z,11.08
2022-12-31T02:53:58.815Z,11.18
2022-12-31T02:56:25.922Z,11.07
2022-12-31T02:59:28.441Z,10.96
2022-12-31T03:02:14.336Z,10.99
2022-12-31T03:05:02.507Z,10.88
2022-12-31T03:07:33.035Z,10.93
2022-12-31T03:10:01.602Z,10.94
2022-12-31T03:12:48.841Z,10.96
2022-12-31T03:15:26.642Z,10.91
2022-12-31T03:18:03.222Z,10.97
2022-12-31T03:21:02.475Z,10.97
2022-12-31T03:23:42.338Z,11.15
2022-12-31T03:26:11.586Z,11.28
2022-12-31T03:28:41.432Z,10.96
2022-12-31T03:31:09.250Z,10.97
2022-12-31T03:33:38.708Z,10.63
2022-12-31T03:36:09.116Z,10.58
2022-12-31T03:38:36.475Z,10.30
2022-12-31T03:41:04.351Z,9.90
2022-12-31T03:43:31.912Z,9.73
2022-12-31T03:46:01.767Z,9.77
2022-12-31T03:48:29.499Z,9.63
2022-12-31T03:50:56.746Z,9.54
2022-12-31T03:53:25.628Z,9.70
2022-12-31T03:55:53.746Z,9.93
2022-12-31T03:58:22.017Z,10.08
2022-12-31T04:00:51.193Z,10.22
2022-12-31T04:03:18.680Z,10.26
2022-12-31T04:05:52.955Z,10.34
2022-12-31T04:08:20.099Z,10.29
2022-12-31T04:10:47.992Z,10.28
2022-12-31T04:13:15.120Z,10.35
2022-12-31T04:15:42.470Z,10.22
2022-12-31T04:18:09.868Z,9.95
2022-12-31T04:20:37.118Z,9.81
2022-12-31T04:23:05.929Z,9.67
2022-12-31T04:25:33.735Z,9.52
2022-12-31T04:28:00.965Z,9.35
2022-12-31T04:30:29.333Z,9.38
2022-12-31T04:32:56.676Z,9.54
2022-12-31T04:35:24.087Z,9.83
2022-12-31T04:37:51.401Z,10.24
2022-12-31T04:40:19.708Z,10.31
2022-12-31T04:42:47.202Z,10.17
2022-12-31T04:45:15.084Z,10.32
2022-12-31T04:47:43.099Z,10.45
2022-12-31T04:50:10.888Z,10.25
2022-12-31T04:52:42.702Z,9.90
2022-12-31T04:55:12.100Z,9.54
2022-12-31T04:57:41.696Z,9.81
2022-12-31T05:00:09.409Z,9.97
2022-12-31T05:02:39.323Z,10.16
2022-12-31T05:05:07.230Z,10.18
2022-12-31T05:07:36.001Z,9.92
2022-12-31T05:10:04.008Z,9.69
2022-12-31T05:12:31.463Z,9.70
2022-12-31T05:14:58.975Z,9.53
2022-12-31T05:17:27.184Z,9.35
2022-12-31T05:19:54.549Z,9.30
2022-12-31T05:22:30.783Z,9.13
2022-12-31T05:24:59.315Z,9.35
2022-12-31T05:27:28.010Z,9.67
2022-12-31T05:29:55.249Z,9.73
2022-12-31T05:32:24.791Z,9.69
2022-12-31T05:34:53.797Z,10.05
2022-12-31T05:37:21.025Z,9.88
2022-12-31T05:39:48.731Z,10.09
2022-12-31T05:42:16.041Z,10.27
2022-12-31T05:44:43.197Z,10.30
2022-12-31T05:47:10.589Z,10.28
2022-12-31T05:49:37.851Z,10.58
2022-12-31T05:52:05.037Z,10.70
2022-12-31T05:54:32.306Z,11.00
2022-12-31T05:56:59.968Z,11.09
2022-12-31T05:59:27.094Z,11.18
2022-12-31T06:01:54.510Z,11.23
2022-12-31T06:04:21.765Z,11.14
2022-12-31T06:06:49.341Z,11.19
2022-12-31T06:09:18.418Z,11.27
2022-12-31T06:11:47.031Z,11.34
2022-12-31T06:14:14.830Z,11.47
2022-12-31T06:16:42.467Z,11.46
2022-12-31T06:19:10.265Z,11.24
2022-12-31T06:21:37.680Z,11.45
2022-12-31T06:24:05.507Z,11.25
2022-12-31T06:26:32.964Z,11.15
2022-12-31T06:29:00.280Z,11.21
2022-12-31T06:31:27.796Z,11.25
2022-12-31T06:33:55.304Z,11.04
2022-12-31T06:36:22.680Z,11.26
2022-12-31T06:38:50.601Z,11.03
2022-12-31T06:41:19.069Z,11.04
2022-12-31T06:43:46.672Z,10.75
2022-12-31T06:46:17.738Z,10.95
2022-12-31T06:48:45.289Z,11.12
2022-12-31T06:51:17.427Z,11.11
2022-12-31T06:53:46.976Z,11.07
2022-12-31T06:56:15.728Z,11.13
2022-12-31T06:58:43.725Z,11.01
2022-12-31T07:01:48.508Z,11.03
2022-12-31T07:04:52.784Z,11.09
2022-12-31T07:07:46.521Z,10.99
2022-12-31T07:10:39.393Z,11.17
2022-12-31T07:13:45.371Z,11.21
2022-12-31T07:16:18.661Z,11.24
2022-12-31T07:18:51.577Z,11.19
2022-12-31T07:21:28.243Z,11.17
2022-12-31T07:23:55.948Z,11.39
2022-12-31T07:26:26.032Z,11.57
2022-12-31T07:29:29.215Z,11.52
2022-12-31T07:32:14.943Z,11.42
2022-12-31T07:35:05.159Z,11.29
2022-12-31T07:37:54.128Z,11.43
2022-12-31T07:40:27.532Z,11.33
2022-12-31T07:43:03.268Z,11.14
2022-12-31T07:45:51.496Z,11.30
2022-12-31T07:48:27.758Z,11.24
2022-12-31T07:50:56.798Z,11.37
2022-12-31T07:53:26.119Z,11.43
2022-12-31T07:56:00.147Z,11.50
2022-12-31T07:58:27.359Z,11.51
2022-12-31T08:00:58.164Z,11.40
2022-12-31T08:03:31.605Z,11.28
2022-12-31T08:06:19.520Z,11.37
2022-12-31T08:09:12.869Z,11.32
2022-12-31T08:11:54.229Z,11.30
2022-12-31T08:14:22.348Z,11.15
2022-12-31T08:16:50.329Z,10.96
2022-12-31T08:19:28.886Z,10.79
2022-12-31T08:22:14.565Z,10.81
2022-12-31T08:24:52.908Z,10.79
2022-12-31T08:27:38.587Z,10.70
2022-12-31T08:30:10.928Z,10.75
2022-12-31T08:33:16.003Z,10.73
2022-12-31T08:35:52.985Z,10.80
2022-12-31T08:38:43.662Z,10.82
2022-12-31T08:41:29.941Z,10.98
2022-12-31T08:44:20.435Z,11.07
2022-12-31T08:47:00.165Z,10.86
2022-12-31T08:49:28.834Z,11.23
2022-12-31T08:51:57.106Z,10.91
2022-12-31T08:54:24.781Z,10.80
2022-12-31T08:57:10.970Z,10.94
2022-12-31T09:00:12.058Z,10.71
2022-12-31T09:02:51.298Z,11.09
2022-12-31T09:05:25.836Z,11.04
2022-12-31T09:08:22.980Z,10.85
2022-12-31T09:11:22.616Z,10.74
2022-12-31T09:14:06.577Z,10.32
2022-12-31T09:16:57.227Z,9.94
2022-12-31T09:19:24.572Z,9.65
2022-12-31T09:21:52.092Z,9.17
2022-12-31T09:24:19.772Z,8.94
2022-12-31T09:27:31.126Z,8.97
2022-12-31T09:30:11.720Z,8.91
2022-12-31T09:33:12.932Z,8.54
2022-12-31T09:35:56.166Z,8.29
2022-12-31T09:38:44.309Z,8.15
2022-12-31T09:41:36.375Z,8.05
2022-12-31T09:44:19.110Z,8.20
2022-12-31T09:47:04.337Z,8.26
2022-12-31T09:49:34.663Z,8.52
2022-12-31T09:52:25.947Z,8.75
2022-12-31T09:54:59.418Z,8.73
2022-12-31T09:58:15.608Z,8.64
2022-12-31T10:01:07.779Z,8.73
2022-12-31T10:03:53.699Z,8.51
2022-12-31T10:06:29.276Z,8.54
2022-12-31T10:09:06.052Z,8.36
2022-12-31T10:11:51.689Z,8.39
2022-12-31T10:14:47.426Z,8.26
2022-12-31T10:17:30.156Z,8.16
2022-12-31T10:20:28.218Z,8.24
2022-12-31T10:22:55.722Z,8.08
2022-12-31T10:25:50.194Z,8.12
2022-12-31T10:28:49.266Z,8.26
2022-12-31T10:31:40.501Z,8.51
2022-12-31T10:34:22.730Z,8.53
2022-12-31T10:37:11.276Z,8.73
2022-12-31T10:39:51.855Z,8.82
2022-12-31T10:42:25.196Z,8.90
2022-12-31T10:45:29.998Z,9.03
2022-12-31T10:47:59.926Z,8.94
2022-12-31T10:51:05.620Z,9.02
2022-12-31T10:53:35.605Z,8.88
2022-12-31T10:56:54.266Z,8.72
2022-12-31T10:59:24.226Z,8.83
2022-12-31T11:02:07.017Z,9.16
2022-12-31T11:05:03.593Z,9.34
2022-12-31T11:07:56.770Z,9.38
2022-12-31T11:10:50.301Z,9.61
2022-12-31T11:13:42.499Z,9.79
2022-12-31T11:16:20.534Z,9.87
2022-12-31T11:19:10.296Z,10.12
2022-12-31T11:21:56.363Z,10.07
2022-12-31T11:24:26.627Z,10.11
2022-12-31T11:27:33.701Z,10.19
2022-12-31T11:30:06.141Z,9.86
2022-12-31T11:32:52.287Z,9.76
2022-12-31T11:35:32.894Z,9.68
2022-12-31T11:38:23.443Z,9.81
2022-12-31T11:41:35.291Z,9.53
2022-12-31T11:44:30.650Z,9.65
2022-12-31T11:47:19.829Z,9.82
2022-12-31T11:50:15.490Z,10.04
2022-12-31T11:52:55.375Z,10.02
2022-12-31T11:55:41.301Z,10.17
2022-12-31T11:58:15.948Z,10.02
2022-12-31T12:00:54.845Z,9.89
2022-12-31T12:03:23.378Z,9.81
2022-12-31T12:05:51.639Z,9.58
2022-12-31T12:08:18.961Z,9.50
2022-12-31T12:10:51.110Z,9.46
2022-12-31T12:13:18.310Z,9.34
2022-12-31T12:15:49.637Z,9.43
2022-12-31T12:18:44.282Z,9.51
2022-12-31T12:21:22.422Z,9.65
2022-12-31T12:24:03.170Z,9.79
2022-12-31T12:26:41.934Z,10.00
2022-12-31T12:29:15.531Z,10.23
2022-12-31T12:31:43.483Z,10.03
2022-12-31T12:34:29.293Z,10.07
2022-12-31T12:36:56.904Z,10.03
2022-12-31T12:39:29.895Z,10.16
2022-12-31T12:42:15.467Z,10.29
2022-12-31T12:44:42.977Z,10.21
2022-12-31T12:47:16.361Z,9.96
2022-12-31T12:49:49.590Z,9.95
2022-12-31T12:52:35.898Z,9.69
2022-12-31T12:55:12.127Z,9.75
2022-12-31T12:57:46.631Z,9.62
2022-12-31T13:00:25.676Z,9.74
2022-12-31T13:03:10.476Z,9.53
2022-12-31T13:05:58.250Z,9.40
2022-12-31T13:08:25.567Z,9.51
2022-12-31T13:11:21.798Z,9.76
2022-12-31T13:14:13.649Z,9.90
2022-12-31T13:16:47.662Z,9.73
2022-12-31T13:19:39.250Z,9.61
2022-12-31T13:22:34.416Z,9.70
2022-12-31T13:25:24.846Z,9.54
2022-12-31T13:27:54.375Z,9.37
2022-12-31T13:30:31.102Z,9.27
2022-12-31T13:33:04.373Z,9.41
2022-12-31T13:35:47.054Z,9.46
2022-12-31T13:38:23.821Z,9.54
2022-12-31T13:41:18.213Z,9.54
2022-12-31T13:43:58.807Z,9.78
2022-12-31T13:46:29.192Z,9.89
2022-12-31T13:49:05.179Z,9.85
2022-12-31T13:51:49.567Z,10.19
2022-12-31T13:54:29.152Z,10.13
2022-12-31T13:57:02.147Z,9.97
2022-12-31T13:59:35.696Z,9.85
2022-12-31T14:02:27.788Z,9.51
2022-12-31T14:05:21.055Z,9.78
2022-12-31T14:07:54.001Z,9.90
2022-12-31T14:10:45.322Z,9.56
2022-12-31T14:13:34.852Z,9.54
2022-12-31T14:16:12.585Z,9.62
2022-12-31T14:18:47.916Z,9.33
2022-12-31T14:21:23.361Z,9.11
2022-12-31T14:24:09.899Z,9.37
2022-12-31T14:26:45.736Z,9.49
2022-12-31T14:29:15.742Z,9.40
2022-12-31T14:32:24.304Z,9.38
2022-12-31T14:35:06.960Z,9.13
2022-12-31T14:37:50.719Z,9.00
2022-12-31T14:40:35.757Z,8.89
2022-12-31T14:43:35.633Z,8.91
2022-12-31T14:46:31.158Z,8.82
2022-12-31T14:49:36.161Z,8.93
2022-12-31T14:52:19.933Z,8.58
2022-12-31T14:54:58.570Z,8.49
2022-12-31T14:57:54.271Z,8.49
2022-12-31T15:00:35.468Z,8.21
2022-12-31T15:03:06.814Z,8.04
2022-12-31T15:05:36.848Z,7.98
2022-12-31T15:08:22.262Z,7.90
2022-12-31T15:11:01.438Z,7.85
2022-12-31T15:13:34.499Z,7.85
2022-12-31T15:16:07.754Z,7.73
2022-12-31T15:18:54.036Z,7.54
2022-12-31T15:22:00.217Z,7.53
2022-12-31T15:24:31.272Z,7.30
2022-12-31T15:27:01.987Z,7.10
2022-12-31T15:29:36.676Z,7.22
2022-12-31T15:32:08.089Z,7.48
2022-12-31T15:34:37.211Z,7.35
2022-12-31T15:37:25.935Z,7.64
2022-12-31T15:40:25.323Z,7.65
2022-12-31T15:42:59.083Z,7.48
2022-12-31T15:45:41.354Z,7.49
2022-12-31T15:48:24.055Z,7.36
2022-12-31T15:50:54.822Z,7.03
2022-12-31T15:53:32.516Z,6.86
2022-12-31T15:56:02.212Z,6.69
2022-12-31T15:58:38.180Z,6.71
2022-12-31T16:01:24.212Z,7.05
2022-12-31T16:04:06.208Z,7.14
2022-12-31T16:06:37.226Z,6.78
2022-12-31T16:09:09.725Z,6.77
2022-12-31T16:11:42.092Z,6.82
2022-12-31T16:14:20.164Z,6.78
2022-12-31T16:16:58.038Z,6.85
2022-12-31T16:19:31.723Z,6.92
2022-12-31T16:22:03.784Z,7.07
2022-12-31T16:24:33.782Z,7.03
2022-12-31T16:27:07.621Z,6.98
2022-12-31T16:29:37.545Z,6.98
2022-12-31T16:32:05.024Z,7.19
2022-12-31T16:34:38.595Z,7.53
2022-12-31T16:37:17.507Z,7.53
2022-12-31T16:39:56.897Z,7.75
2022-12-31T16:42:27.039Z,7.24
2022-12-31T16:44:56.995Z,7.32
2022-12-31T16:47:36.667Z,7.60
2022-12-31T16:50:13.926Z,7.70
2022-12-31T16:52:44.686Z,7.71
2022-12-31T16:55:23.753Z,8.06
2022-12-31T16:57:58.924Z,8.19
2022-12-31T17:00:26.999Z,8.19
2022-12-31T17:02:57.217Z,8.42
2022-12-31T17:05:26.516Z,8.35
2022-12-31T17:07:54.586Z,8.48
2022-12-31T17:10:26.980Z,8.41
2022-12-31T17:13:28.234Z,8.16
2022-12-31T17:15:52.516Z,7.95
2022-12-31T17:18:24.333Z,7.56
2022-12-31T17:20:53.644Z,7.37
2022-12-31T17:23:33.977Z,7.22
2022-12-31T17:26:08.474Z,6.90
2022-12-31T17:29:03.374Z,6.92
2022-12-31T17:31:36.923Z,6.71
2022-12-31T17:34:13.530Z,6.42
2022-12-31T17:36:58.785Z,6.06
2022-12-31T17:39:28.057Z,6.06
2022-12-31T17:41:57.946Z,6.03
2022-12-31T17:44:29.143Z,5.97
2022-12-31T17:46:56.604Z,5.85
2022-12-31T17:49:30.196Z,5.69
2022-12-31T17:51:57.713Z,5.65
2022-12-31T17:54:24.933Z,5.65
2022-12-31T17:56:53.036Z,5.59
2022-12-31T17:59:29.799Z,5.58
2022-12-31T18:02:02.525Z,5.44
2022-12-31T18:04:29.809Z,5.29
2022-12-31T18:06:57.133Z,5.26
2022-12-31T18:09:24.357Z,5.34
2022-12-31T18:11:54.341Z,5.35
2022-12-31T18:14:24.218Z,5.46
2022-12-31T18:16:51.420Z,5.54
2022-12-31T18:19:45.681Z,5.46
2022-12-31T18:22:05.877Z,5.54
2022-12-31T18:24:33.351Z,5.67
2022-12-31T18:27:00.690Z,5.65
2022-12-31T18:29:27.811Z,5.74
2022-12-31T18:31:55.183Z,5.61
2022-12-31T18:34:22.405Z,5.58
2022-12-31T18:36:49.534Z,5.61
2022-12-31T18:39:17.007Z,5.58
2022-12-31T18:41:49.175Z,5.63
2022-12-31T18:44:16.592Z,5.78
2022-12-31T18:46:43.841Z,5.84
2022-12-31T18:49:11.124Z,5.89
2022-12-31T18:51:38.437Z,5.80
2022-12-31T18:54:10.035Z,5.91
2022-12-31T18:56:41.829Z,5.88
2022-12-31T18:59:13.736Z,5.90
2022-12-31T19:01:41.696Z,5.98
2022-12-31T19:04:24.757Z,5.91
2022-12-31T19:06:54.821Z,5.72
2022-12-31T19:09:44.714Z,5.87
2022-12-31T19:12:14.532Z,6.11
2022-12-31T19:14:41.781Z,6.07
2022-12-31T19:19:35.184Z,6.01
2022-12-31T19:22:03.158Z,5.99
2022-12-31T19:24:30.539Z,5.87
2022-12-31T19:26:57.735Z,6.01
2022-12-31T19:29:28.690Z,6.09
2022-12-31T19:31:55.996Z,5.96
2022-12-31T19:34:23.369Z,5.92
2022-12-31T19:36:50.529Z,5.77
2022-12-31T19:39:20.408Z,5.91
2022-12-31T19:41:54.731Z,5.85
2022-12-31T19:44:26.684Z,6.09
2022-12-31T19:46:54.444Z,6.36
2022-12-31T19:49:22.059Z,6.27
2022-12-31T19:51:49.365Z,6.28
2022-12-31T19:54:16.708Z,6.26
2022-12-31T19:56:44.143Z,6.24
2022-12-31T19:59:11.956Z,6.42
2022-12-31T20:01:39.557Z,6.31
2022-12-31T20:04:07.140Z,6.05
2022-12-31T20:06:35.444Z,6.15
2022-12-31T20:09:03.617Z,6.08
2022-12-31T20:11:31.631Z,5.93
2022-12-31T20:13:58.861Z,5.86
2022-12-31T20:16:33.983Z,5.84
2022-12-31T20:19:01.626Z,5.77
2022-12-31T20:21:29.601Z,5.84
2022-12-31T20:23:56.922Z,5.84
2022-12-31T20:26:25.106Z,6.09
2022-12-31T20:28:53.456Z,6.09
2022-12-31T20:31:23.694Z,5.95
2022-12-31T20:33:51.565Z,5.96
2022-12-31T20:36:18.749Z,5.98
2022-12-31T20:38:46.270Z,5.93
2022-12-31T20:41:22.064Z,5.88
2022-12-31T20:43:50.372Z,5.75
2022-12-31T20:46:25.056Z,5.75
2022-12-31T20:48:54.916Z,5.59
2022-12-31T20:51:22.938Z,5.58
2022-12-31T20:54:05.010Z,5.88
2022-12-31T20:56:35.798Z,5.79
2022-12-31T20:59:04.314Z,5.87
2022-12-31T21:01:55.095Z,5.66
2022-12-31T21:04:19.420Z,5.79
2022-12-31T21:06:48.262Z,5.62
2022-12-31T21:09:15.496Z,5.65
2022-12-31T21:12:01.536Z,5.65
2022-12-31T21:14:29.250Z,5.86
2022-12-31T21:16:56.554Z,5.84
2022-12-31T21:19:23.676Z,5.94
2022-12-31T21:21:51.021Z,5.88
2022-12-31T21:24:23.605Z,5.57
2022-12-31T21:26:51.514Z,5.03
2022-12-31T21:29:18.823Z,5.62
2022-12-31T21:31:46.158Z,5.61
2022-12-31T21:34:13.559Z,5.54
2022-12-31T21:36:40.674Z,5.64
2022-12-31T21:39:07.764Z,5.62
2022-12-31T21:41:53.030Z,5.69
2022-12-31T21:44:24.697Z,5.44
2022-12-31T21:47:33.368Z,5.46
2022-12-31T21:49:44.030Z,5.59
2022-12-31T21:52:27.914Z,5.54
2022-12-31T21:55:14.953Z,5.85
2022-12-31T21:58:15.641Z,6.05
2022-12-31T22:00:49.578Z,6.10
2022-12-31T22:03:27.964Z,6.31
2022-12-31T22:06:03.040Z,6.28
2022-12-31T22:08:31.781Z,6.24
2022-12-31T22:10:58.976Z,6.30
2022-12-31T22:13:26.222Z,6.21
2022-12-31T22:16:00.414Z,6.28
2022-12-31T22:18:34.141Z,6.15
2022-12-31T22:21:13.725Z,6.30
2022-12-31T22:23:46.627Z,6.41
2022-12-31T22:26:15.993Z,6.37
2022-12-31T22:28:44.318Z,6.45
2022-12-31T22:31:24.728Z,6.70
2022-12-31T22:33:52.597Z,6.97
2022-12-31T22:36:22.311Z,7.18
2022-12-31T22:38:51.584Z,7.41
2022-12-31T22:41:20.868Z,7.61
2022-12-31T22:43:58.514Z,7.58
2022-12-31T22:46:30.538Z,7.40
2022-12-31T22:48:59.368Z,7.43
2022-12-31T22:51:56.582Z,7.68
2022-12-31T22:54:15.385Z,7.48
2022-12-31T22:56:42.914Z,7.31
2022-12-31T22:59:11.135Z,7.23
2022-12-31T23:01:38.522Z,7.15
2022-12-31T23:04:06.005Z,7.50
2022-12-31T23:06:43.701Z,7.51
2022-12-31T23:09:31.091Z,7.09
2022-12-31T23:12:00.812Z,7.16
2022-12-31T23:14:49.392Z,7.48
2022-12-31T23:17:38.449Z,7.53
2022-12-31T23:20:29.905Z,7.22
2022-12-31T23:23:07.087Z,7.04
2022-12-31T23:25:39.127Z,7.18
2022-12-31T23:28:07.558Z,7.08
2022-12-31T23:30:38.714Z,6.94
2022-12-31T23:33:07.083Z,6.66
2022-12-31T23:35:36.845Z,6.94
2022-12-31T23:38:06.270Z,7.27
2022-12-31T23:40:36.485Z,7.16
2022-12-31T23:43:08.249Z,7.04
2022-12-31T23:45:36.534Z,7.52
2022-12-31T23:48:04.094Z,7.65
2022-12-31T23:50:31.430Z,7.84
2022-12-31T23:52:59.046Z,7.84
2022-12-31T23:55:26.406Z,7.75
2022-12-31T23:57:53.898Z,7.69
